Time;durP1;ratioP1;P1;durP2;ratioP2;P2;SDS_P1;SDS_P2;PMS_P1;PMS_P2;Temp;Humidity;BMP_temperature;BMP_pressure;BME280_temperature;BME280_humidity;BME280_pressure;Samples;Min_cycle;Max_cycle;Signal;HPM_P1;HPM_P2
2023/06/09 00:01:58;;;;;;;23.38;21.25;;;;;;;;;;5113598;28;20047;-83
2023/06/09 00:04:29;;;;;;;23.33;20.92;;;;;;;;;;5112726;28;20039;-83
2023/06/09 00:06:58;;;;;;;23.48;21.33;;;;;;;;;;5112574;28;20139;-83
2023/06/09 00:09:25;;;;;;;23.08;20.85;;;;;;;;;;5112554;28;20078;-83
2023/06/09 00:11:52;;;;;;;23.98;21.40;;;;;;;;;;5112284;28;20044;-83
2023/06/09 00:14:20;;;;;;;23.00;20.73;;;;;;;;;;5113467;28;20089;-83
2023/06/09 00:16:47;;;;;;;23.80;21.45;;;;;;;;;;5112456;28;20043;-83
2023/06/09 00:19:16;;;;;;;22.48;20.27;;;;;;;;;;5113965;28;20051;-82
2023/06/09 00:21:50;;;;;;;21.67;19.65;;;;;;;;;;5110676;28;20462;-83
2023/06/09 00:24:20;;;;;;;21.63;19.50;;;;;;;;;;5113591;28;20043;-83
2023/06/09 00:26:50;;;;;;;22.70;19.45;;;;;;;;;;5113307;28;20097;-83
2023/06/09 00:29:18;;;;;;;20.75;18.75;;;;;;;;;;5112328;28;20051;-83
2023/06/09 00:31:45;;;;;;;20.92;18.77;;;;;;;;;;5111890;28;20101;-83
2023/06/09 00:34:13;;;;;;;21.02;18.90;;;;;;;;;;5111920;28;20545;-83
2023/06/09 00:36:41;;;;;;;19.50;17.40;;;;;;;;;;5113256;28;20077;-83
2023/06/09 00:39:08;;;;;;;19.67;17.73;;;;;;;;;;5111944;28;20120;-83
2023/06/09 00:41:36;;;;;;;20.73;18.73;;;;;;;;;;5113380;28;20054;-83
2023/06/09 00:44:04;;;;;;;18.90;17.17;;;;;;;;;;5113221;28;20047;-83
2023/06/09 00:46:32;;;;;;;19.75;17.65;;;;;;;;;;5112153;28;20134;-83
2023/06/09 00:48:59;;;;;;;21.92;19.75;;;;;;;;;;5111831;28;20051;-83
2023/06/09 00:51:27;;;;;;;22.63;20.33;;;;;;;;;;5111584;28;20078;-83
2023/06/09 00:53:54;;;;;;;22.13;20.00;;;;;;;;;;5111960;28;20488;-83
2023/06/09 00:56:25;;;;;;;20.85;18.77;;;;;;;;;;5113274;28;20097;-83
2023/06/09 00:58:52;;;;;;;21.23;19.08;;;;;;;;;;5111879;28;20050;-83
2023/06/09 01:01:19;;;;;;;19.20;17.50;;;;;;;;;;5111805;28;20083;-82
2023/06/09 01:03:47;;;;;;;20.98;18.95;;;;;;;;;;5113365;28;20047;-82
2023/06/09 01:06:26;;;;;;;20.00;18.10;;;;;;;;;;5112001;28;20048;-83
2023/06/09 01:09:13;;;;;;;20.70;18.50;;;;;;;;;;5112877;28;20056;-83
2023/06/09 01:11:49;;;;;;;20.67;18.48;;;;;;;;;;5112873;28;20044;-82
2023/06/09 01:14:37;;;;;;;22.40;20.20;;;;;;;;;;5111950;28;20109;-83
2023/06/09 01:17:14;;;;;;;22.63;20.48;;;;;;;;;;5111898;28;20044;-83
2023/06/09 01:19:46;;;;;;;20.10;18.17;;;;;;;;;;5113536;28;20097;-83
2023/06/09 01:22:32;;;;;;;22.55;20.15;;;;;;;;;;5116852;28;20047;-83
2023/06/09 01:25:18;;;;;;;25.15;21.85;;;;;;;;;;5115548;28;20048;-83
2023/06/09 01:27:46;;;;;;;22.45;20.17;;;;;;;;;;5115744;28;20048;-83
2023/06/09 01:30:15;;;;;;;21.17;18.98;;;;;;;;;;5116784;28;20047;-83
2023/06/09 01:32:43;;;;;;;22.45;20.15;;;;;;;;;;5115379;28;20077;-83
2023/06/09 01:35:11;;;;;;;22.63;20.33;;;;;;;;;;5116608;28;20062;-82
2023/06/09 01:37:38;;;;;;;26.85;23.60;;;;;;;;;;5116664;28;20059;-83
2023/06/09 01:40:08;;;;;;;23.38;20.88;;;;;;;;;;5115467;28;20051;-83
2023/06/09 01:42:35;;;;;;;25.30;22.63;;;;;;;;;;5116560;28;20043;-83
2023/06/09 01:45:03;;;;;;;25.63;22.92;;;;;;;;;;5116467;28;20058;-83
2023/06/09 01:47:31;;;;;;;31.83;25.92;;;;;;;;;;5116343;28;20484;-82
2023/06/09 01:50:02;;;;;;;23.73;21.23;;;;;;;;;;5114995;28;20112;-83
2023/06/09 01:52:35;;;;;;;28.98;24.92;;;;;;;;;;5115219;28;20086;-82
2023/06/09 01:55:15;;;;;;;25.45;22.95;;;;;;;;;;5114384;28;20109;-82
2023/06/09 01:57:45;;;;;;;25.38;22.88;;;;;;;;;;5116198;28;20070;-83
2023/06/09 02:00:13;;;;;;;27.00;21.92;;;;;;;;;;5116306;28;20048;-83
2023/06/09 02:02:41;;;;;;;25.92;23.33;;;;;;;;;;5115642;28;20172;-82
2023/06/09 02:05:09;;;;;;;25.48;22.92;;;;;;;;;;5115793;27;20434;-82
2023/06/09 02:07:39;;;;;;;25.58;22.98;;;;;;;;;;5114424;28;20127;-82
2023/06/09 02:10:08;;;;;;;27.20;23.55;;;;;;;;;;5115891;28;20139;-82
2023/06/09 02:12:35;;;;;;;25.77;23.08;;;;;;;;;;5114643;28;20105;-82
2023/06/09 02:15:03;;;;;;;28.27;25.33;;;;;;;;;;5114454;28;20076;-82
2023/06/09 02:17:32;;;;;;;25.70;23.10;;;;;;;;;;5114358;28;20054;-83
2023/06/09 02:20:00;;;;;;;27.08;24.17;;;;;;;;;;5114342;28;20058;-83
2023/06/09 02:22:27;;;;;;;26.42;23.60;;;;;;;;;;5115514;28;20088;-83
2023/06/09 02:24:55;;;;;;;27.20;24.27;;;;;;;;;;5114278;28;20043;-83
2023/06/09 02:27:22;;;;;;;25.08;22.63;;;;;;;;;;5114229;28;20458;-82
2023/06/09 02:29:52;;;;;;;26.73;23.85;;;;;;;;;;5115113;28;20564;-82
2023/06/09 02:32:20;;;;;;;27.23;24.25;;;;;;;;;;5112967;28;20051;-83
2023/06/09 02:34:47;;;;;;;26.25;23.55;;;;;;;;;;5115543;28;20142;-83
2023/06/09 02:37:15;;;;;;;22.67;20.30;;;;;;;;;;5115172;28;20051;-83
2023/06/09 02:39:42;;;;;;;23.80;21.35;;;;;;;;;;5114038;28;20066;-82
2023/06/09 02:42:09;;;;;;;22.48;20.38;;;;;;;;;;5113883;28;20449;-82
2023/06/09 02:44:37;;;;;;;23.02;20.70;;;;;;;;;;5115045;28;20066;-82
2023/06/09 02:47:06;;;;;;;24.38;21.77;;;;;;;;;;5115094;28;20047;-82
2023/06/09 02:49:34;;;;;;;21.83;19.52;;;;;;;;;;5114847;28;20039;-83
2023/06/09 02:52:01;;;;;;;21.08;18.52;;;;;;;;;;5114707;28;20822;-82
2023/06/09 02:54:28;;;;;;;21.08;18.88;;;;;;;;;;5113792;28;20474;-82
2023/06/09 02:56:56;;;;;;;21.50;19.40;;;;;;;;;;5113785;28;20039;-82
2023/06/09 02:59:23;;;;;;;22.00;19.80;;;;;;;;;;5114824;28;20126;-82
2023/06/09 03:01:50;;;;;;;19.80;17.58;;;;;;;;;;5114742;28;20059;-83
2023/06/09 03:04:18;;;;;;;20.42;17.60;;;;;;;;;;5114768;28;20040;-82
2023/06/09 03:06:49;;;;;;;19.70;17.58;;;;;;;;;;5114594;28;20051;-81
2023/06/09 03:09:17;;;;;;;20.48;18.50;;;;;;;;;;5114680;28;20549;-82
2023/06/09 03:11:44;;;;;;;20.92;18.95;;;;;;;;;;5113238;28;20081;-82
2023/06/09 03:14:12;;;;;;;20.00;18.15;;;;;;;;;;5113789;28;20069;-82
2023/06/09 03:16:39;;;;;;;18.05;16.38;;;;;;;;;;5113018;28;20556;-82
2023/06/09 03:19:07;;;;;;;18.88;16.58;;;;;;;;;;5114556;28;20058;-83
2023/06/09 03:21:35;;;;;;;19.20;17.25;;;;;;;;;;5113263;28;20047;-83
2023/06/09 03:24:06;;;;;;;21.30;19.30;;;;;;;;;;5114307;28;20130;-82
2023/06/09 03:26:33;;;;;;;21.17;19.20;;;;;;;;;;5113225;28;20048;-82
2023/06/09 03:29:00;;;;;;;22.63;20.55;;;;;;;;;;5114107;28;20112;-82
2023/06/09 03:31:28;;;;;;;23.38;21.00;;;;;;;;;;5112767;28;20052;-83
2023/06/09 03:33:56;;;;;;;23.10;20.70;;;;;;;;;;5114037;28;20450;-82
2023/06/09 03:36:24;;;;;;;24.50;22.10;;;;;;;;;;5114195;28;20408;-82
2023/06/09 03:38:52;;;;;;;23.65;21.15;;;;;;;;;;5114083;28;20551;-83
2023/06/09 03:41:21;;;;;;;25.30;22.70;;;;;;;;;;5114009;28;20561;-82
2023/06/09 03:43:48;;;;;;;25.13;22.70;;;;;;;;;;5113481;28;20043;-83
2023/06/09 03:46:15;;;;;;;26.77;23.17;;;;;;;;;;5112709;28;20077;-83
2023/06/09 03:48:43;;;;;;;27.20;24.50;;;;;;;;;;5113817;28;20051;-82
2023/06/09 03:51:10;;;;;;;25.85;23.13;;;;;;;;;;5112433;28;20108;-82
2023/06/09 03:53:37;;;;;;;23.65;21.35;;;;;;;;;;5113600;28;20479;-83
2023/06/09 03:56:05;;;;;;;22.90;20.65;;;;;;;;;;5113765;28;20047;-83
2023/06/09 03:58:32;;;;;;;23.55;21.25;;;;;;;;;;5113700;28;20471;-83
2023/06/09 04:00:59;;;;;;;22.63;20.45;;;;;;;;;;5112376;28;20059;-83
2023/06/09 04:03:26;;;;;;;21.77;19.83;;;;;;;;;;5112502;28;20055;-83
2023/06/09 04:05:54;;;;;;;19.38;17.52;;;;;;;;;;5112326;28;20044;-83
2023/06/09 04:08:21;;;;;;;19.55;17.55;;;;;;;;;;5112440;28;20088;-82
2023/06/09 04:10:49;;;;;;;19.98;17.88;;;;;;;;;;5113169;28;20073;-83
2023/06/09 04:13:16;;;;;;;19.05;17.17;;;;;;;;;;5112181;28;20052;-83
2023/06/09 04:15:44;;;;;;;19.00;17.30;;;;;;;;;;5113118;28;20397;-82
2023/06/09 04:18:11;;;;;;;18.73;16.95;;;;;;;;;;5112161;28;20048;-82
2023/06/09 04:20:38;;;;;;;19.00;17.30;;;;;;;;;;5113514;28;20126;-83
2023/06/09 04:23:08;;;;;;;20.98;18.85;;;;;;;;;;5113162;28;20172;-83
2023/06/09 04:25:35;;;;;;;20.08;18.00;;;;;;;;;;5113276;28;20076;-82
2023/06/09 04:28:03;;;;;;;19.40;17.60;;;;;;;;;;5113087;28;20044;-83
2023/06/09 04:30:34;;;;;;;19.70;17.65;;;;;;;;;;5111762;28;20062;-82
2023/06/09 04:33:03;;;;;;;18.60;16.83;;;;;;;;;;5113135;28;20075;-83
2023/06/09 04:35:31;;;;;;;19.05;17.08;;;;;;;;;;5113034;28;20059;-82
2023/06/09 04:37:59;;;;;;;18.50;16.70;;;;;;;;;;5111975;28;20214;-83
2023/06/09 04:40:30;;;;;;;19.98;17.92;;;;;;;;;;5111899;28;20462;-83
2023/06/09 04:42:58;;;;;;;18.15;16.45;;;;;;;;;;5112779;28;20108;-83
2023/06/09 04:45:33;;;;;;;18.95;17.15;;;;;;;;;;5111879;28;20057;-83
2023/06/09 04:48:01;;;;;;;18.65;16.60;;;;;;;;;;5113016;28;20143;-83
2023/06/09 04:50:30;;;;;;;17.88;16.27;;;;;;;;;;5111755;28;20074;-83
2023/06/09 04:52:58;;;;;;;16.80;15.25;;;;;;;;;;5111604;28;20052;-83
2023/06/09 04:55:26;;;;;;;16.30;14.80;;;;;;;;;;5112163;28;20051;-82
2023/06/09 04:57:56;;;;;;;15.75;14.15;;;;;;;;;;5111639;28;20043;-83
2023/06/09 05:00:24;;;;;;;14.80;13.40;;;;;;;;;;5111641;28;20043;-82
2023/06/09 05:02:53;;;;;;;13.27;12.02;;;;;;;;;;5111253;28;20043;-83
2023/06/09 05:05:20;;;;;;;11.98;10.88;;;;;;;;;;5112769;28;20138;-83
2023/06/09 05:07:48;;;;;;;13.00;11.70;;;;;;;;;;5112678;28;20083;-83
2023/06/09 05:10:15;;;;;;;12.40;11.30;;;;;;;;;;5111146;28;20047;-82
2023/06/09 05:12:42;;;;;;;11.50;10.50;;;;;;;;;;5112368;28;20039;-82
2023/06/09 05:15:10;;;;;;;11.15;10.15;;;;;;;;;;5112631;28;20051;-83
2023/06/09 05:17:37;;;;;;;11.32;9.63;;;;;;;;;;5111755;28;20085;-82
2023/06/09 05:20:06;;;;;;;10.20;9.13;;;;;;;;;;5104262;28;20061;-83
2023/06/09 05:22:33;;;;;;;9.80;8.88;;;;;;;;;;5091940;28;20424;-83
2023/06/09 05:25:01;;;;;;;10.57;9.57;;;;;;;;;;5090960;28;20044;-83
2023/06/09 05:27:29;;;;;;;10.00;9.15;;;;;;;;;;5091070;28;20407;-83
2023/06/09 05:29:56;;;;;;;9.98;8.98;;;;;;;;;;5091935;28;20083;-83
2023/06/09 05:32:23;;;;;;;9.43;8.73;;;;;;;;;;5091982;28;20051;-82
2023/06/09 05:34:52;;;;;;;9.30;8.40;;;;;;;;;;5090810;28;20492;-83
2023/06/09 05:37:19;;;;;;;9.13;8.43;;;;;;;;;;5091178;28;20079;-82
2023/06/09 05:39:46;;;;;;;9.40;8.43;;;;;;;;;;5090993;28;20056;-83
2023/06/09 05:42:14;;;;;;;8.90;8.20;;;;;;;;;;5092321;28;20109;-83
2023/06/09 05:44:41;;;;;;;8.52;7.63;;;;;;;;;;5091904;28;20081;-82
2023/06/09 05:47:08;;;;;;;8.25;7.45;;;;;;;;;;5091221;28;20095;-83
2023/06/09 05:49:39;;;;;;;12.48;8.07;;;;;;;;;;5092116;28;20143;-83
2023/06/09 05:52:06;;;;;;;16.50;7.78;;;;;;;;;;5090772;28;20048;-83
2023/06/09 05:54:33;;;;;;;14.38;7.57;;;;;;;;;;5092533;28;20052;-82
2023/06/09 05:57:04;;;;;;;11.93;6.90;;;;;;;;;;5090383;28;20258;-83
2023/06/09 05:59:32;;;;;;;13.40;7.55;;;;;;;;;;5091753;28;20060;-83
2023/06/09 06:02:00;;;;;;;9.45;6.88;;;;;;;;;;5090579;28;20377;-83
2023/06/09 06:04:28;;;;;;;8.77;7.05;;;;;;;;;;5090672;28;20044;-83
2023/06/09 06:06:55;;;;;;;15.38;7.57;;;;;;;;;;5093841;28;20476;-83
2023/06/09 06:09:25;;;;;;;14.07;8.60;;;;;;;;;;5094165;28;20044;-83
2023/06/09 06:11:52;;;;;;;9.68;7.72;;;;;;;;;;5094340;28;20055;-83
2023/06/09 06:14:19;;;;;;;12.52;8.07;;;;;;;;;;5095559;28;20043;-82
2023/06/09 06:16:46;;;;;;;10.40;7.70;;;;;;;;;;5094268;28;20044;-83
2023/06/09 06:19:14;;;;;;;16.10;7.63;;;;;;;;;;5095395;28;20403;-82
2023/06/09 06:21:44;;;;;;;11.45;7.70;;;;;;;;;;5094299;28;20047;-82
2023/06/09 06:24:11;;;;;;;12.75;7.97;;;;;;;;;;5094128;28;20048;-82
2023/06/09 06:26:39;;;;;;;8.65;7.85;;;;;;;;;;5093882;28;20048;-83
2023/06/09 06:29:07;;;;;;;13.73;7.80;;;;;;;;;;5094908;28;20474;-82
2023/06/09 06:31:34;;;;;;;9.95;8.00;;;;;;;;;;5093675;28;20405;-82
2023/06/09 06:34:02;;;;;;;10.00;7.68;;;;;;;;;;5094005;28;20044;-83
2023/06/09 06:36:33;;;;;;;9.57;7.28;;;;;;;;;;5094020;28;20058;-84
2023/06/09 06:39:00;;;;;;;10.63;7.45;;;;;;;;;;5094042;28;20458;-83
2023/06/09 06:41:28;;;;;;;8.13;7.22;;;;;;;;;;5093899;28;20054;-83
2023/06/09 06:43:55;;;;;;;13.02;8.15;;;;;;;;;;5095131;28;20052;-84
2023/06/09 06:46:22;;;;;;;29.40;9.73;;;;;;;;;;5094016;28;20056;-83
2023/06/09 06:48:50;;;;;;;16.83;8.27;;;;;;;;;;5094789;28;20149;-84
2023/06/09 06:51:17;;;;;;;16.45;9.05;;;;;;;;;;5094672;28;20056;-84
2023/06/09 06:53:44;;;;;;;18.33;8.93;;;;;;;;;;5093512;28;20048;-84
2023/06/09 06:56:11;;;;;;;16.33;9.15;;;;;;;;;;5094977;28;20063;-84
2023/06/09 06:58:39;;;;;;;17.77;9.20;;;;;;;;;;5093690;28;20082;-83
2023/06/09 07:01:06;;;;;;;12.07;8.23;;;;;;;;;;5093719;28;20044;-84
2023/06/09 07:03:35;;;;;;;14.35;8.35;;;;;;;;;;5095061;28;20128;-84
2023/06/09 07:06:03;;;;;;;14.05;8.68;;;;;;;;;;5094888;28;20072;-83
2023/06/09 07:08:30;;;;;;;15.65;8.43;;;;;;;;;;5093607;28;20044;-84
2023/06/09 07:10:57;;;;;;;12.57;7.50;;;;;;;;;;5091911;28;20059;-83
2023/06/09 07:13:24;;;;;;;8.02;6.00;;;;;;;;;;5093263;28;20048;-84
2023/06/09 07:15:51;;;;;;;15.68;6.68;;;;;;;;;;5094448;28;20051;-84
2023/06/09 07:18:19;;;;;;;11.00;6.90;;;;;;;;;;5092372;28;20052;-84
2023/06/09 07:20:48;;;;;;;10.05;7.28;;;;;;;;;;5093094;28;20044;-84
2023/06/09 07:23:15;;;;;;;10.93;6.30;;;;;;;;;;5094587;28;20063;-84
2023/06/09 07:25:43;;;;;;;7.57;6.28;;;;;;;;;;5094217;28;20446;-84
2023/06/09 07:28:10;;;;;;;10.02;6.18;;;;;;;;;;5093993;28;20044;-85
2023/06/09 07:30:41;;;;;;;9.65;6.30;;;;;;;;;;5093919;28;20052;-84
2023/06/09 07:33:09;;;;;;;8.32;6.32;;;;;;;;;;5093249;28;20135;-84
2023/06/09 07:35:36;;;;;;;9.40;5.88;;;;;;;;;;5094453;28;20067;-84
2023/06/09 07:38:04;;;;;;;6.43;5.63;;;;;;;;;;5093088;28;20052;-85
2023/06/09 07:40:32;;;;;;;6.40;5.82;;;;;;;;;;5092750;28;20050;-84
2023/06/09 07:42:59;;;;;;;6.13;5.57;;;;;;;;;;5091809;28;20079;-85
2023/06/09 07:45:27;;;;;;;6.03;5.40;;;;;;;;;;5093028;28;20466;-85
2023/06/09 07:47:55;;;;;;;9.38;5.88;;;;;;;;;;5093300;28;20458;-85
2023/06/09 07:50:22;;;;;;;6.60;5.97;;;;;;;;;;5093150;28;20056;-85
2023/06/09 07:52:49;;;;;;;5.55;5.10;;;;;;;;;;5091816;28;20052;-84
2023/06/09 07:55:16;;;;;;;6.18;5.13;;;;;;;;;;5093230;28;20052;-86
2023/06/09 07:57:45;;;;;;;5.30;4.82;;;;;;;;;;5092980;28;20052;-85
2023/06/09 08:00:13;;;;;;;5.40;4.53;;;;;;;;;;5092796;28;20056;-84
2023/06/09 08:02:42;;;;;;;12.00;5.72;;;;;;;;;;5092774;28;20048;-86
2023/06/09 08:05:10;;;;;;;5.90;4.63;;;;;;;;;;5093194;28;20048;-86
2023/06/09 08:07:38;;;;;;;5.35;4.82;;;;;;;;;;5093127;28;20048;-85
2023/06/09 08:10:05;;;;;;;6.10;4.30;;;;;;;;;;5093764;28;20484;-85
2023/06/09 08:12:34;;;;;;;5.22;4.50;;;;;;;;;;5093726;28;20056;-85
2023/06/09 08:15:02;;;;;;;4.13;3.83;;;;;;;;;;5092938;28;20047;-86
2023/06/09 08:17:29;;;;;;;4.78;4.45;;;;;;;;;;5092896;28;20044;-86
2023/06/09 08:19:56;;;;;;;7.63;4.75;;;;;;;;;;5092861;28;20048;-85
2023/06/09 08:22:24;;;;;;;4.07;3.72;;;;;;;;;;5092504;28;20052;-86
2023/06/09 08:24:51;;;;;;;5.85;4.35;;;;;;;;;;5092629;28;20047;-87
2023/06/09 08:27:18;;;;;;;5.10;4.10;;;;;;;;;;5092505;28;20048;-86
2023/06/09 08:29:46;;;;;;;4.93;3.70;;;;;;;;;;5091520;28;20074;-85
2023/06/09 08:32:13;;;;;;;7.78;4.28;;;;;;;;;;5092222;28;20056;-88
2023/06/09 08:34:40;;;;;;;4.32;3.92;;;;;;;;;;5092602;28;20081;-88
2023/06/09 08:37:08;;;;;;;4.60;4.15;;;;;;;;;;5092397;28;20052;-85
2023/06/09 08:39:38;;;;;;;7.78;4.95;;;;;;;;;;5092261;28;20051;-83
2023/06/09 08:42:11;;;;;;;5.55;4.32;;;;;;;;;;5092576;28;20492;-85
2023/06/09 08:44:42;;;;;;;4.80;4.43;;;;;;;;;;5092538;28;20052;-86
2023/06/09 08:47:11;;;;;;;5.43;4.93;;;;;;;;;;5092553;28;20052;-83
2023/06/09 08:49:39;;;;;;;6.40;4.50;;;;;;;;;;5093035;28;20054;-84
2023/06/09 08:52:07;;;;;;;5.28;4.28;;;;;;;;;;5091864;28;20044;-83
2023/06/09 08:54:34;;;;;;;6.15;4.40;;;;;;;;;;5092991;28;20101;-83
2023/06/09 08:57:02;;;;;;;5.50;4.50;;;;;;;;;;5092668;28;20451;-88
2023/06/09 08:59:33;;;;;;;7.70;4.25;;;;;;;;;;5092532;28;20064;-84
2023/06/09 09:02:02;;;;;;;5.30;4.80;;;;;;;;;;5092310;28;20545;-83
2023/06/09 09:04:29;;;;;;;4.43;4.18;;;;;;;;;;5092531;28;20052;-85
2023/06/09 09:06:57;;;;;;;4.32;4.13;;;;;;;;;;5092789;28;20048;-84
2023/06/09 09:09:24;;;;;;;6.68;4.10;;;;;;;;;;5092577;28;20454;-86
2023/06/09 09:11:58;;;;;;;5.15;4.75;;;;;;;;;;5092674;28;20051;-83
2023/06/09 09:14:25;;;;;;;9.18;4.85;;;;;;;;;;5092336;28;20055;-85
2023/06/09 09:16:52;;;;;;;5.05;4.55;;;;;;;;;;5093493;28;20056;-86
2023/06/09 09:19:30;;;;;;;4.95;4.55;;;;;;;;;;5092734;28;20404;-86
2023/06/09 09:21:57;;;;;;;6.55;5.18;;;;;;;;;;5092138;28;20530;-84
2023/06/09 09:24:29;;;;;;;4.60;4.20;;;;;;;;;;5092663;28;20097;-86
2023/06/09 09:26:57;;;;;;;6.60;4.80;;;;;;;;;;5092304;28;20082;-85
2023/06/09 09:29:28;;;;;;;6.60;4.20;;;;;;;;;;5092077;28;20471;-87
2023/06/09 09:31:59;;;;;;;4.15;3.78;;;;;;;;;;5091869;28;20056;-86
2023/06/09 09:34:26;;;;;;;4.05;3.70;;;;;;;;;;5092335;28;20040;-88
2023/06/09 09:36:55;;;;;;;4.22;3.90;;;;;;;;;;5092164;28;20048;-84
2023/06/09 09:39:22;;;;;;;3.80;3.60;;;;;;;;;;5092459;28;20052;-86
2023/06/09 09:42:04;;;;;;;4.93;4.25;;;;;;;;;;5095591;28;20052;-88
2023/06/09 09:44:52;;;;;;;5.72;3.55;;;;;;;;;;5096241;28;20071;-85
2023/06/09 09:47:22;;;;;;;5.00;3.70;;;;;;;;;;5096434;28;20097;-86
2023/06/09 09:49:50;;;;;;;4.45;3.88;;;;;;;;;;5095757;28;20056;-87
2023/06/09 09:52:25;;;;;;;7.53;3.70;;;;;;;;;;5095781;28;20044;-85
2023/06/09 09:54:53;;;;;;;4.20;3.83;;;;;;;;;;5095744;28;20419;-89
2023/06/09 09:57:20;;;;;;;5.50;3.53;;;;;;;;;;5096004;28;20048;-90
2023/06/09 09:59:48;;;;;;;5.72;3.50;;;;;;;;;;5095945;28;20047;-90
2023/06/09 10:02:20;;;;;;;8.55;3.70;;;;;;;;;;5095770;28;20499;-85
2023/06/09 10:04:49;;;;;;;12.30;3.88;;;;;;;;;;5095799;28;20102;-87
2023/06/09 10:07:21;;;;;;;8.50;3.92;;;;;;;;;;5095896;28;20048;-87
2023/06/09 10:09:51;;;;;;;5.72;3.53;;;;;;;;;;5095847;28;20047;-86
2023/06/09 10:12:25;;;;;;;4.38;3.60;;;;;;;;;;5095877;28;20052;-85
2023/06/09 10:14:53;;;;;;;8.23;3.30;;;;;;;;;;5095339;28;20097;-83
2023/06/09 10:17:22;;;;;;;4.68;3.45;;;;;;;;;;5095216;28;20052;-86
2023/06/09 10:19:56;;;;;;;4.93;3.47;;;;;;;;;;5095556;28;20083;-86
2023/06/09 10:22:23;;;;;;;4.45;3.00;;;;;;;;;;5095355;28;20097;-85
2023/06/09 10:24:51;;;;;;;3.17;2.88;;;;;;;;;;5095278;28;20496;-86
2023/06/09 10:27:20;;;;;;;4.15;3.35;;;;;;;;;;5096761;28;20067;-91
2023/06/09 10:29:48;;;;;;;3.65;3.40;;;;;;;;;;5097699;28;20060;-86
2023/06/09 10:32:15;;;;;;;4.18;3.60;;;;;;;;;;5094557;28;20055;-85
2023/06/09 10:34:45;;;;;;;3.47;3.17;;;;;;;;;;5095089;28;20052;-86
2023/06/09 10:37:12;;;;;;;3.47;3.17;;;;;;;;;;5095240;28;20109;-88
2023/06/09 10:39:56;;;;;;;5.10;3.63;;;;;;;;;;5094900;28;20467;-85
2023/06/09 10:42:50;;;;;;;6.03;3.58;;;;;;;;;;5095414;28;20056;-90
2023/06/09 10:45:18;;;;;;;3.83;3.63;;;;;;;;;;5072531;28;20067;-86
2023/06/09 10:47:49;;;;;;;4.45;3.50;;;;;;;;;;5094530;28;20044;-84
2023/06/09 10:50:27;;;;;;;3.45;3.25;;;;;;;;;;5094528;28;20053;-88
2023/06/09 10:52:55;;;;;;;3.67;3.38;;;;;;;;;;5093319;28;20052;-86
2023/06/09 10:55:24;;;;;;;4.25;3.65;;;;;;;;;;5094760;28;20048;-86
2023/06/09 10:57:52;;;;;;;3.50;3.20;;;;;;;;;;5094472;28;20118;-84
2023/06/09 11:00:19;;;;;;;3.63;3.33;;;;;;;;;;5094722;28;20066;-87
2023/06/09 11:02:51;;;;;;;4.10;3.80;;;;;;;;;;5094251;28;20089;-88
2023/06/09 11:05:21;;;;;;;4.55;3.28;;;;;;;;;;5094285;28;20515;-87
2023/06/09 11:07:53;;;;;;;4.07;3.60;;;;;;;;;;5094747;28;20060;-85
2023/06/09 11:10:20;;;;;;;4.88;3.63;;;;;;;;;;5094602;28;20071;-87
2023/06/09 11:12:50;;;;;;;4.15;3.85;;;;;;;;;;5094431;28;20482;-86
2023/06/09 11:15:17;;;;;;;4.60;3.38;;;;;;;;;;5094081;28;20052;-86
2023/06/09 11:17:45;;;;;;;5.32;3.50;;;;;;;;;;5094289;28;20144;-85
2023/06/09 11:20:20;;;;;;;5.25;3.13;;;;;;;;;;5094635;28;20556;-87
2023/06/09 11:22:47;;;;;;;4.88;3.30;;;;;;;;;;5094119;28;20416;-87
2023/06/09 11:25:17;;;;;;;4.72;3.08;;;;;;;;;;5094607;28;20550;-84
2023/06/09 11:27:46;;;;;;;4.68;3.40;;;;;;;;;;5094155;28;20134;-87
2023/06/09 11:30:20;;;;;;;8.52;3.88;;;;;;;;;;5094420;28;20557;-85
2023/06/09 11:32:58;;;;;;;7.88;3.05;;;;;;;;;;5094496;28;20480;-87
2023/06/09 11:35:25;;;;;;;3.63;3.33;;;;;;;;;;5094351;28;20415;-86
2023/06/09 11:38:07;;;;;;;4.47;3.42;;;;;;;;;;5093840;28;20484;-85
2023/06/09 11:40:38;;;;;;;3.38;3.05;;;;;;;;;;5093675;28;20068;-84
2023/06/09 11:43:07;;;;;;;6.30;3.47;;;;;;;;;;5094517;28;20455;-86
2023/06/09 11:45:35;;;;;;;3.50;3.20;;;;;;;;;;5095317;28;20052;-92
2023/06/09 11:48:04;;;;;;;5.93;3.05;;;;;;;;;;5095221;28;20488;-84
2023/06/09 11:50:44;;;;;;;4.80;3.10;;;;;;;;;;5093966;28;20126;-89
2023/06/09 11:53:13;;;;;;;3.47;3.17;;;;;;;;;;5094099;28;20066;-91
2023/06/09 11:55:40;;;;;;;3.88;3.13;;;;;;;;;;5093890;28;20485;-85
2023/06/09 11:58:09;;;;;;;7.45;3.53;;;;;;;;;;5093556;28;20488;-85
2023/06/09 12:00:41;;;;;;;3.85;3.40;;;;;;;;;;5093534;28;20457;-88
2023/06/09 12:03:09;;;;;;;8.13;3.97;;;;;;;;;;5093226;28;20135;-86
2023/06/09 12:05:37;;;;;;;5.78;3.33;;;;;;;;;;5093521;28;20040;-89
2023/06/09 12:08:12;;;;;;;4.25;3.50;;;;;;;;;;5093919;28;20135;-92
2023/06/09 12:10:39;;;;;;;7.07;4.03;;;;;;;;;;5093327;28;20130;-88
2023/06/09 12:13:07;;;;;;;11.07;4.05;;;;;;;;;;5093608;28;20117;-86
2023/06/09 12:15:34;;;;;;;4.30;3.90;;;;;;;;;;5093499;28;20537;-86
2023/06/09 12:18:02;;;;;;;3.72;3.30;;;;;;;;;;5093602;28;20084;-87
2023/06/09 12:20:31;;;;;;;4.18;3.75;;;;;;;;;;5093845;28;20054;-85
2023/06/09 12:23:02;;;;;;;3.65;3.42;;;;;;;;;;5091996;28;20147;-86
2023/06/09 12:25:40;;;;;;;6.93;3.17;;;;;;;;;;5093516;28;20188;-87
2023/06/09 12:28:26;;;;;;;5.47;3.40;;;;;;;;;;5093681;28;20048;-89
2023/06/09 12:30:54;;;;;;;4.88;3.28;;;;;;;;;;5092670;28;20117;-86
2023/06/09 12:33:22;;;;;;;4.00;3.40;;;;;;;;;;5093187;28;20477;-83
2023/06/09 12:35:51;;;;;;;5.50;3.90;;;;;;;;;;5093390;28;20047;-85
2023/06/09 12:38:18;;;;;;;4.75;3.60;;;;;;;;;;5093038;28;20469;-85
2023/06/09 12:40:56;;;;;;;4.22;3.35;;;;;;;;;;5093253;28;20121;-89
2023/06/09 12:43:24;;;;;;;5.65;3.33;;;;;;;;;;5093831;28;20052;-88
2023/06/09 12:45:55;;;;;;;5.07;3.25;;;;;;;;;;5093189;28;20051;-87
2023/06/09 12:48:22;;;;;;;4.35;3.28;;;;;;;;;;5093439;28;20107;-88
2023/06/09 12:50:50;;;;;;;6.88;3.20;;;;;;;;;;5092864;28;20126;-85
2023/06/09 12:53:17;;;;;;;6.65;3.40;;;;;;;;;;5093477;28;20052;-88
2023/06/09 12:55:45;;;;;;;5.97;3.53;;;;;;;;;;5093046;28;20051;-87
2023/06/09 12:58:12;;;;;;;5.32;3.30;;;;;;;;;;5093066;28;20070;-86
2023/06/09 13:00:39;;;;;;;9.93;3.60;;;;;;;;;;5096809;28;20138;-85
2023/06/09 13:03:10;;;;;;;4.10;3.70;;;;;;;;;;5100949;28;20052;-89
2023/06/09 13:05:37;;;;;;;4.85;3.17;;;;;;;;;;5093312;28;20059;-85
2023/06/09 13:08:05;;;;;;;5.15;3.42;;;;;;;;;;5093117;28;20040;-88
2023/06/09 13:10:32;;;;;;;5.53;3.30;;;;;;;;;;5092610;28;20043;-87
2023/06/09 13:13:00;;;;;;;5.22;3.22;;;;;;;;;;5092516;28;20083;-87
2023/06/09 13:15:27;;;;;;;6.35;3.20;;;;;;;;;;5094182;28;20055;-86
2023/06/09 13:17:55;;;;;;;4.25;3.10;;;;;;;;;;5096522;28;20086;-83
2023/06/09 13:20:22;;;;;;;3.70;2.97;;;;;;;;;;5097685;28;20040;-87
2023/06/09 13:22:50;;;;;;;10.23;3.35;;;;;;;;;;5096806;28;20048;-91
2023/06/09 13:25:18;;;;;;;6.57;3.00;;;;;;;;;;5096818;28;20044;-88
2023/06/09 13:27:45;;;;;;;5.95;3.00;;;;;;;;;;5096484;28;20052;-87
2023/06/09 13:30:13;;;;;;;3.83;3.40;;;;;;;;;;5097024;28;20101;-86
2023/06/09 13:32:43;;;;;;;3.92;3.20;;;;;;;;;;5096268;28;20083;-87
2023/06/09 13:35:11;;;;;;;6.07;2.92;;;;;;;;;;5096796;28;20083;-84
2023/06/09 13:37:38;;;;;;;4.32;3.33;;;;;;;;;;5096412;28;20048;-87
2023/06/09 13:40:06;;;;;;;3.42;2.63;;;;;;;;;;5096415;28;20055;-87
2023/06/09 13:42:33;;;;;;;5.53;3.00;;;;;;;;;;5097973;28;20048;-87
2023/06/09 13:45:00;;;;;;;5.05;3.30;;;;;;;;;;5097858;28;20097;-87
2023/06/09 13:47:28;;;;;;;3.50;3.20;;;;;;;;;;5097008;28;20083;-86
2023/06/09 13:49:55;;;;;;;3.90;3.13;;;;;;;;;;5097108;28;20052;-86
2023/06/09 13:52:23;;;;;;;3.90;3.17;;;;;;;;;;5096902;28;20504;-86
2023/06/09 13:54:50;;;;;;;6.07;3.20;;;;;;;;;;5096423;28;20112;-88
2023/06/09 13:57:19;;;;;;;8.18;3.30;;;;;;;;;;5096149;28;20059;-90
2023/06/09 13:59:46;;;;;;;4.32;2.90;;;;;;;;;;5096271;28;20083;-92
2023/06/09 14:02:14;;;;;;;7.30;3.65;;;;;;;;;;5096180;28;20060;-85
2023/06/09 14:04:41;;;;;;;6.05;3.53;;;;;;;;;;5096042;28;20047;-91
2023/06/09 14:07:10;;;;;;;6.10;3.42;;;;;;;;;;5095684;28;20055;-85
2023/06/09 14:09:39;;;;;;;9.85;3.38;;;;;;;;;;5096688;28;20488;-91
2023/06/09 14:12:06;;;;;;;3.80;3.05;;;;;;;;;;5095451;28;20137;-86
2023/06/09 14:14:36;;;;;;;9.45;3.40;;;;;;;;;;5095658;28;20075;-91
2023/06/09 14:17:04;;;;;;;6.10;2.70;;;;;;;;;;5095687;28;20454;-87
2023/06/09 14:19:34;;;;;;;3.85;3.22;;;;;;;;;;5098766;28;20044;-87
2023/06/09 14:22:04;;;;;;;5.15;3.40;;;;;;;;;;5095766;28;20488;-85
2023/06/09 14:24:32;;;;;;;3.85;3.22;;;;;;;;;;5095848;28;20051;-86
2023/06/09 14:27:00;;;;;;;8.85;3.47;;;;;;;;;;5095952;28;20060;-90
2023/06/09 14:29:28;;;;;;;3.92;3.00;;;;;;;;;;5095711;28;20076;-87
2023/06/09 14:31:55;;;;;;;3.60;3.22;;;;;;;;;;5094869;28;20064;-86
2023/06/09 14:34:22;;;;;;;6.03;3.22;;;;;;;;;;5096069;28;20102;-89
2023/06/09 14:36:50;;;;;;;3.65;3.30;;;;;;;;;;5095039;28;20051;-87
2023/06/09 14:39:17;;;;;;;3.58;3.28;;;;;;;;;;5094990;28;20094;-91
2023/06/09 14:41:47;;;;;;;5.70;3.10;;;;;;;;;;5095488;28;20511;-84
2023/06/09 14:44:16;;;;;;;5.20;3.28;;;;;;;;;;5095422;28;20424;-91